Terminal Aerodrome Forecast
Issued by NWS Charleston, WV

Current Version | Previous Version | Text Only | Print | Product List | Glossary Off
Versions: 1 2 3 4 5 6 7 8 9 10 11 12 13 14 15 16 17 18 19 20 21 22 23 24 25 26

000
FTUS41 KRLX 262345
TAFEKN
TAF
KEKN 262345Z 2700/2724 00000KT P6SM BKN060
     FM270400 00000KT 6SM BR BKN070
     FM271400 00000KT 6SM HZ BKN050
     FM271700 00000KT P6SM BKN050
     FM271900 32004KT P6SM VCTS BKN050CB
     FM272300 00000KT P6SM BKN040=

USA.gov is the U.S. government's official web portal to all federal, state and local government web resources and services.